createdAt,value
2019-01-11T00:04:16.088Z,1.40
2019-01-11T00:07:04.296Z,1.40
2019-01-11T00:09:52.024Z,1.40
2019-01-11T00:12:39.736Z,1.40
2019-01-11T00:15:27.501Z,1.40
2019-01-11T00:18:15.488Z,1.40
2019-01-11T00:21:03.440Z,1.50
2019-01-11T00:23:44.033Z,1.50
2019-01-11T00:26:24.692Z,1.50
2019-01-11T00:29:05.271Z,1.50
2019-01-11T00:31:45.896Z,1.50
2019-01-11T00:34:26.484Z,1.50
2019-01-11T00:37:07.060Z,1.60
2019-01-11T00:39:47.740Z,1.60
2019-01-11T00:42:28.252Z,1.60
2019-01-11T00:45:08.884Z,1.60
2019-01-11T00:47:49.445Z,1.60
2019-01-11T00:50:30.609Z,1.60
2019-01-11T00:53:11.971Z,1.50
2019-01-11T00:55:52.888Z,1.50
2019-01-11T00:58:33.568Z,1.60
2019-01-11T01:01:14.420Z,1.60
2019-01-11T01:03:54.936Z,1.60
2019-01-11T01:06:36.060Z,1.60
2019-01-11T01:09:17.425Z,1.60
2019-01-11T01:11:58.000Z,1.70
2019-01-11T01:14:38.941Z,1.60
2019-01-11T01:17:19.692Z,1.60
2019-01-11T01:20:00.451Z,1.60
2019-01-11T01:22:41.176Z,1.60
2019-01-11T01:25:22.100Z,1.60
2019-01-11T01:28:02.800Z,1.60
2019-01-11T01:30:43.407Z,1.60
2019-01-11T01:33:24.193Z,1.70
2019-01-11T01:36:04.967Z,1.70
2019-01-11T01:38:45.809Z,1.70
2019-01-11T01:41:26.519Z,1.70
2019-01-11T01:44:07.144Z,1.70
2019-01-11T01:46:48.156Z,1.60
2019-01-11T01:49:28.655Z,1.60
2019-01-11T01:52:09.176Z,1.60
2019-01-11T01:54:51.030Z,1.60
2019-01-11T01:57:32.391Z,1.70
2019-01-11T02:00:13.188Z,1.70
2019-01-11T02:02:53.476Z,1.70
2019-01-11T02:05:34.038Z,1.70
2019-01-11T02:08:14.505Z,1.70
2019-01-11T02:10:55.290Z,1.70
2019-01-11T02:13:35.475Z,1.70
2019-01-11T02:16:16.028Z,1.70
2019-01-11T02:18:56.360Z,1.70
2019-01-11T02:21:37.212Z,1.70
2019-01-11T02:24:17.788Z,1.70
2019-01-11T02:26:58.364Z,1.70
2019-01-11T02:29:39.152Z,1.70
2019-01-11T02:32:20.521Z,1.60
2019-01-11T02:35:01.091Z,1.60
2019-01-11T02:37:41.809Z,1.70
2019-01-11T02:40:22.588Z,1.70
2019-01-11T02:43:06.705Z,1.70
2019-01-11T02:45:47.468Z,1.70
2019-01-11T02:48:28.200Z,1.80
2019-01-11T02:51:08.924Z,1.80
2019-01-11T02:53:49.512Z,1.80
2019-01-11T02:56:30.391Z,1.90
2019-01-11T02:59:10.872Z,1.90
2019-01-11T03:01:51.636Z,2.00
2019-01-11T03:04:32.311Z,2.00
2019-01-11T03:07:13.416Z,2.10
2019-01-11T03:09:53.868Z,2.10
2019-01-11T03:12:34.493Z,2.20
2019-01-11T03:15:15.552Z,2.20
2019-01-11T03:17:56.044Z,2.20
2019-01-11T03:20:36.674Z,2.20
2019-01-11T03:23:17.368Z,2.10
2019-01-11T03:25:57.997Z,2.10
2019-01-11T03:28:38.632Z,2.10
2019-01-11T03:31:20.809Z,2.00
2019-01-11T03:34:01.761Z,2.00
2019-01-11T03:36:42.405Z,2.10
2019-01-11T03:39:22.860Z,2.00
2019-01-11T03:42:05.413Z,2.00
2019-01-11T03:44:46.572Z,2.00
2019-01-11T03:47:27.224Z,2.00
2019-01-11T03:50:07.862Z,2.00
2019-01-11T03:52:48.576Z,1.90
2019-01-11T03:55:29.424Z,1.80
2019-01-11T03:58:09.879Z,1.70
2019-01-11T04:00:50.445Z,1.60
2019-01-11T04:03:31.332Z,1.70
2019-01-11T04:06:12.268Z,1.60
2019-01-11T04:08:52.899Z,1.60
2019-01-11T04:11:33.633Z,1.60
2019-01-11T04:14:14.276Z,1.60
2019-01-11T04:16:54.592Z,1.60
2019-01-11T04:19:35.407Z,1.50
2019-01-11T04:25:00.064Z,1.50
2019-01-11T04:27:41.149Z,1.50
2019-01-11T04:30:22.380Z,1.50
2019-01-11T04:33:03.278Z,1.50
2019-01-11T04:35:44.279Z,1.40
2019-01-11T04:38:25.153Z,1.50
2019-01-11T04:41:05.497Z,1.50
2019-01-11T04:43:46.317Z,1.50
2019-01-11T04:46:27.014Z,1.50
2019-01-11T04:49:07.424Z,1.50
2019-01-11T04:51:48.297Z,1.50
2019-01-11T04:54:29.036Z,1.50
2019-01-11T04:57:09.937Z,1.40
2019-01-11T04:59:50.431Z,1.50
2019-01-11T05:02:29.269Z,1.50
2019-01-11T05:05:17.053Z,1.50
2019-01-11T05:08:04.771Z,1.50
2019-01-11T05:10:52.499Z,1.50
2019-01-11T05:16:49.039Z,1.60
2019-01-11T05:19:36.751Z,1.60
2019-01-11T05:22:24.743Z,1.70
2019-01-11T05:25:05.651Z,1.70
2019-01-11T05:27:46.339Z,1.70
2019-01-11T05:30:27.373Z,1.60
2019-01-11T05:33:07.846Z,1.50
2019-01-11T05:35:48.131Z,1.70
2019-01-11T05:38:28.924Z,1.40
2019-01-11T05:41:09.207Z,1.40
2019-01-11T05:43:50.115Z,1.50
2019-01-11T05:46:30.707Z,1.50
2019-01-11T05:49:11.131Z,1.40
2019-01-11T05:51:51.955Z,1.40
2019-01-11T05:54:32.461Z,1.40
2019-01-11T05:57:13.417Z,1.50
2019-01-11T05:59:54.500Z,1.50
2019-01-11T06:02:35.433Z,1.50
2019-01-11T06:05:16.148Z,1.50
2019-01-11T06:07:56.744Z,1.40
2019-01-11T06:10:37.414Z,1.40
2019-01-11T06:13:18.284Z,1.30
2019-01-11T06:15:58.492Z,1.30
2019-01-11T06:18:39.091Z,1.30
2019-01-11T06:21:19.328Z,1.20
2019-01-11T06:24:00.032Z,1.20
2019-01-11T06:26:40.917Z,1.20
2019-01-11T06:29:21.542Z,1.10
2019-01-11T06:32:02.260Z,1.10
2019-01-11T06:34:42.448Z,1.00
2019-01-11T06:37:23.399Z,1.00
2019-01-11T06:40:04.551Z,1.00
2019-01-11T06:42:44.942Z,1.00
2019-01-11T06:45:25.332Z,1.00
2019-01-11T06:48:07.512Z,1.00
2019-01-11T06:50:48.779Z,1.00
2019-01-11T06:53:32.789Z,1.00
2019-01-11T06:56:13.554Z,1.00
2019-01-11T06:58:54.612Z,1.00
2019-01-11T07:01:34.950Z,1.00
2019-01-11T07:04:16.032Z,1.10
2019-01-11T07:06:56.655Z,1.10
2019-01-11T07:09:37.224Z,1.10
2019-01-11T07:12:19.308Z,1.10
2019-01-11T07:14:59.448Z,1.10
2019-01-11T07:17:40.279Z,1.10
2019-01-11T07:20:20.677Z,1.20
2019-01-11T07:23:01.183Z,1.20
2019-01-11T07:25:41.808Z,1.10
2019-01-11T07:28:22.356Z,1.10
2019-01-11T07:31:04.416Z,1.10
2019-01-11T07:33:45.332Z,1.10
2019-01-11T07:36:27.503Z,1.10
2019-01-11T07:39:10.120Z,1.20
2019-01-11T07:41:50.523Z,1.20
2019-01-11T07:44:31.340Z,1.30
2019-01-11T07:47:11.838Z,1.30
2019-01-11T07:49:52.270Z,1.30
2019-01-11T07:52:33.005Z,1.30
2019-01-11T07:55:13.608Z,1.30
2019-01-11T07:57:54.098Z,1.30
2019-01-11T08:00:34.973Z,1.30
2019-01-11T08:03:15.727Z,1.30
2019-01-11T08:05:56.023Z,1.30
2019-01-11T08:08:36.877Z,1.30
2019-01-11T08:11:17.100Z,1.20
2019-01-11T08:13:57.780Z,1.20
2019-01-11T08:16:38.507Z,1.20
2019-01-11T08:19:18.652Z,1.10
2019-01-11T08:21:59.128Z,1.10
2019-01-11T08:24:41.716Z,1.10
2019-01-11T08:27:22.908Z,1.10
2019-01-11T08:30:03.460Z,1.10
2019-01-11T08:32:43.876Z,1.20
2019-01-11T08:35:24.532Z,1.20
2019-01-11T08:38:05.569Z,1.20
2019-01-11T08:40:46.604Z,1.20
2019-01-11T08:43:27.435Z,1.20
2019-01-11T08:46:08.197Z,1.20
2019-01-11T08:48:49.092Z,1.20
2019-01-11T08:51:29.618Z,1.20
2019-01-11T08:54:10.176Z,1.20
2019-01-11T08:56:50.684Z,1.20
2019-01-11T08:59:31.315Z,1.20
2019-01-11T09:02:11.700Z,1.20
2019-01-11T09:04:52.631Z,1.20
2019-01-11T09:07:33.312Z,1.20
2019-01-11T09:10:14.443Z,1.10
2019-01-11T09:12:55.088Z,1.00
2019-01-11T09:15:35.772Z,1.00
2019-01-11T09:18:16.427Z,1.00
2019-01-11T09:20:57.570Z,0.90
2019-01-11T09:23:38.843Z,1.00
2019-01-11T09:26:23.172Z,0.90
2019-01-11T09:29:03.651Z,1.00
2019-01-11T09:31:44.780Z,1.00
2019-01-11T09:34:25.769Z,0.90
2019-01-11T09:37:06.173Z,1.00
2019-01-11T09:39:47.124Z,0.90
2019-01-11T09:42:27.538Z,0.90
2019-01-11T09:45:08.112Z,0.90
2019-01-11T09:47:48.426Z,1.00
2019-01-11T09:50:29.621Z,1.00
2019-01-11T09:53:10.808Z,1.00
2019-01-11T09:55:51.812Z,1.00
2019-01-11T09:58:32.315Z,1.00
2019-01-11T10:01:14.467Z,1.00
2019-01-11T10:03:55.760Z,1.00
2019-01-11T10:09:20.672Z,1.10
2019-01-11T10:12:01.327Z,1.10
2019-01-11T10:14:41.776Z,1.10
2019-01-11T10:17:22.439Z,1.10
2019-01-11T10:20:02.838Z,1.10
2019-01-11T10:22:43.544Z,1.10
2019-01-11T10:25:24.787Z,1.10
2019-01-11T10:28:05.896Z,1.10
2019-01-11T10:30:46.637Z,1.10
2019-01-11T10:33:27.708Z,1.10
2019-01-11T10:36:08.508Z,1.10
2019-01-11T10:38:49.052Z,1.10
2019-01-11T10:41:30.176Z,1.20
2019-01-11T10:44:10.724Z,1.20
2019-01-11T10:46:51.925Z,1.20
2019-01-11T10:49:32.864Z,1.20
2019-01-11T10:52:13.368Z,1.20
2019-01-11T10:54:53.800Z,1.20
2019-01-11T10:57:34.564Z,1.30
2019-01-11T11:00:15.193Z,1.20
2019-01-11T11:05:40.698Z,1.20
2019-01-11T11:08:21.284Z,1.30
2019-01-11T11:11:01.677Z,1.30
2019-01-11T11:13:42.697Z,1.30
2019-01-11T11:16:22.832Z,1.30
2019-01-11T11:19:03.428Z,1.20
2019-01-11T11:21:44.129Z,1.20
2019-01-11T11:24:24.587Z,1.20
2019-01-11T11:27:05.725Z,1.30
2019-01-11T11:29:46.807Z,1.30
2019-01-11T11:32:28.812Z,1.30
2019-01-11T11:35:09.896Z,1.30
2019-01-11T11:37:50.844Z,1.50
2019-01-11T11:40:31.500Z,1.50
2019-01-11T11:43:12.906Z,1.40
2019-01-11T11:45:53.405Z,1.50
2019-01-11T11:48:33.936Z,1.50
2019-01-11T11:51:14.388Z,1.50
2019-01-11T11:53:55.440Z,1.50
2019-01-11T11:56:35.944Z,1.50
2019-01-11T11:59:16.608Z,1.50
2019-01-11T12:01:57.245Z,1.50
2019-01-11T12:04:37.812Z,1.50
2019-01-11T12:07:18.449Z,1.50
2019-01-11T12:09:59.299Z,1.60
2019-01-11T12:12:40.144Z,1.60
2019-01-11T12:15:20.836Z,1.70
2019-01-11T12:18:01.372Z,1.70
2019-01-11T12:20:41.919Z,1.70
2019-01-11T12:23:22.336Z,1.70
2019-01-11T12:26:03.166Z,1.70
2019-01-11T12:28:43.432Z,1.60
2019-01-11T12:31:24.133Z,1.60
2019-01-11T12:34:04.748Z,1.70
2019-01-11T12:36:45.392Z,1.70
2019-01-11T12:39:25.959Z,1.70
2019-01-11T12:42:06.805Z,1.60
2019-01-11T12:44:47.244Z,1.60
2019-01-11T12:47:27.956Z,1.60
2019-01-11T12:50:08.321Z,1.60
2019-01-11T12:52:48.508Z,1.60
2019-01-11T12:55:29.617Z,1.60
2019-01-11T12:58:10.272Z,1.60
2019-01-11T13:00:50.577Z,1.60
2019-01-11T13:03:31.089Z,1.60
2019-01-11T13:06:11.775Z,1.60
2019-01-11T13:08:52.604Z,1.70
2019-01-11T13:11:33.196Z,1.70
2019-01-11T13:14:14.499Z,1.70
2019-01-11T13:16:55.332Z,1.70
2019-01-11T13:19:36.368Z,1.70
2019-01-11T13:22:17.102Z,1.70
2019-01-11T13:24:57.388Z,1.70
2019-01-11T13:27:37.871Z,1.70
2019-01-11T13:30:18.760Z,1.80
2019-01-11T13:32:59.523Z,1.90
2019-01-11T13:35:40.163Z,1.80
2019-01-11T13:38:20.780Z,1.80
2019-01-11T13:41:01.165Z,1.90
2019-01-11T13:43:41.884Z,1.90
2019-01-11T13:46:22.784Z,1.90
2019-01-11T13:49:03.688Z,1.90
2019-01-11T13:51:44.188Z,1.90
2019-01-11T13:54:25.119Z,1.90
2019-01-11T13:57:05.953Z,1.90
2019-01-11T13:59:46.720Z,1.80
2019-01-11T14:02:27.526Z,1.80
2019-01-11T14:05:08.013Z,1.80
2019-01-11T14:07:48.444Z,1.80
2019-01-11T14:10:28.772Z,1.70
2019-01-11T14:13:09.444Z,1.80
2019-01-11T14:15:50.368Z,1.70
2019-01-11T14:18:30.999Z,1.80
2019-01-11T14:21:11.813Z,1.80
2019-01-11T14:23:52.172Z,1.80
2019-01-11T14:26:32.659Z,1.80
2019-01-11T14:29:13.155Z,1.70
2019-01-11T14:31:51.744Z,1.80
2019-01-11T14:34:39.767Z,1.80
2019-01-11T14:37:32.273Z,1.80
2019-01-11T14:40:16.947Z,1.90
2019-01-11T14:43:04.953Z,1.80
2019-01-11T14:45:53.004Z,1.80
2019-01-11T14:48:41.064Z,1.80
2019-01-11T14:51:28.779Z,1.70
2019-01-11T14:54:16.759Z,1.70
2019-01-11T14:57:04.815Z,1.70
2019-01-11T14:59:52.877Z,1.70
2019-01-11T15:02:40.588Z,1.70
2019-01-11T15:05:28.569Z,1.70
2019-01-11T15:08:16.287Z,1.80
2019-01-11T15:11:04.084Z,1.80
2019-01-11T15:13:52.119Z,1.80
2019-01-11T15:16:39.835Z,1.80
2019-01-11T15:19:27.596Z,1.80
2019-01-11T15:22:15.312Z,1.80
2019-01-11T15:25:03.035Z,1.80
2019-01-11T15:27:43.653Z,1.80
2019-01-11T15:30:24.460Z,1.80
2019-01-11T15:33:05.043Z,1.80
2019-01-11T15:35:45.631Z,1.90
2019-01-11T15:38:24.564Z,1.90
2019-01-11T15:41:12.621Z,1.90
2019-01-11T15:44:00.339Z,1.90
2019-01-11T15:46:48.064Z,1.90
2019-01-11T15:49:36.071Z,1.90
2019-01-11T15:52:23.795Z,1.90
2019-01-11T15:55:11.771Z,1.90
2019-01-11T15:57:59.487Z,1.90
2019-01-11T16:00:47.833Z,1.90
2019-01-11T16:03:35.568Z,2.00
2019-01-11T16:06:42.616Z,1.90
2019-01-11T16:10:08.862Z,1.90
2019-01-11T16:12:56.576Z,1.90
2019-01-11T16:16:05.029Z,1.80
2019-01-11T16:18:53.012Z,1.80
2019-01-11T16:21:41.064Z,1.80
2019-01-11T16:24:28.792Z,1.90
2019-01-11T16:27:09.800Z,1.90
2019-01-11T16:29:50.223Z,1.80
2019-01-11T16:32:30.920Z,1.90
2019-01-11T16:35:11.613Z,1.90
2019-01-11T16:37:52.150Z,1.80
2019-01-11T16:40:32.331Z,1.90
2019-01-11T16:43:13.021Z,1.80
2019-01-11T16:45:53.688Z,1.90
2019-01-11T16:48:34.288Z,1.90
2019-01-11T16:51:14.752Z,1.90
2019-01-11T16:53:55.372Z,1.90
2019-01-11T16:56:35.932Z,1.90
2019-01-11T16:59:16.205Z,1.90
2019-01-11T17:01:56.659Z,1.80
2019-01-11T17:04:37.166Z,1.80
2019-01-11T17:07:17.419Z,1.90
2019-01-11T17:09:57.784Z,1.90
2019-01-11T17:12:41.730Z,1.90
2019-01-11T17:15:21.272Z,1.80
2019-01-11T17:18:01.949Z,1.80
2019-01-11T17:20:42.536Z,1.80
2019-01-11T17:23:23.260Z,1.80
2019-01-11T17:26:04.336Z,1.80
2019-01-11T17:28:44.860Z,1.80
2019-01-11T17:31:26.168Z,1.90
2019-01-11T17:34:06.624Z,1.80
2019-01-11T17:36:47.607Z,1.80
2019-01-11T17:39:28.026Z,1.70
2019-01-11T17:42:08.736Z,1.80
2019-01-11T17:44:49.391Z,1.80
2019-01-11T17:47:30.116Z,1.70
2019-01-11T17:50:10.320Z,1.70
2019-01-11T17:52:50.679Z,1.70
2019-01-11T17:55:31.368Z,1.70
2019-01-11T17:58:12.052Z,1.80
2019-01-11T18:00:52.815Z,1.80
2019-01-11T18:03:33.779Z,1.80
2019-01-11T18:06:14.683Z,1.90
2019-01-11T18:08:55.536Z,1.80
2019-01-11T18:11:36.880Z,1.80
2019-01-11T18:14:18.013Z,1.80
2019-01-11T18:16:59.113Z,1.80
2019-01-11T18:19:39.640Z,1.70
2019-01-11T18:22:20.520Z,1.70
2019-01-11T18:25:00.988Z,1.80
2019-01-11T18:27:41.709Z,1.80
2019-01-11T18:30:22.308Z,1.90
2019-01-11T18:33:03.002Z,1.90
2019-01-11T18:35:43.556Z,1.90
2019-01-11T18:38:24.220Z,1.80
2019-01-11T18:41:05.176Z,1.80
2019-01-11T18:43:46.192Z,1.80
2019-01-11T18:46:26.660Z,1.90
2019-01-11T18:49:07.304Z,1.90
2019-01-11T18:51:48.612Z,1.90
2019-01-11T18:54:29.103Z,2.00
2019-01-11T18:57:09.597Z,2.00
2019-01-11T18:59:50.291Z,2.00
2019-01-11T19:02:30.788Z,2.00
2019-01-11T19:05:11.883Z,2.00
2019-01-11T19:07:52.787Z,2.10
2019-01-11T19:10:33.531Z,2.10
2019-01-11T19:13:14.048Z,2.10
2019-01-11T19:15:54.577Z,2.00
2019-01-11T19:18:35.376Z,2.00
2019-01-11T19:21:16.152Z,1.90
2019-01-11T19:23:56.620Z,1.90
2019-01-11T19:26:37.760Z,1.90
2019-01-11T19:29:18.288Z,1.90
2019-01-11T19:31:59.427Z,1.90
2019-01-11T19:34:40.333Z,1.90
2019-01-11T19:37:22.337Z,1.90
2019-01-11T19:40:02.887Z,1.90
2019-01-11T19:42:44.246Z,2.00
2019-01-11T19:45:24.727Z,2.00
2019-01-11T19:48:05.290Z,1.90
2019-01-11T19:50:45.977Z,2.00
2019-01-11T19:53:27.679Z,2.00
2019-01-11T19:56:08.974Z,1.90
2019-01-11T19:58:49.857Z,1.90
2019-01-11T20:01:31.132Z,1.90
2019-01-11T20:04:11.831Z,1.90
2019-01-11T20:06:52.624Z,2.00
2019-01-11T20:09:33.196Z,2.00
2019-01-11T20:12:13.564Z,2.00
2019-01-11T20:14:53.986Z,2.00
2019-01-11T20:17:34.398Z,2.00
2019-01-11T20:20:15.076Z,2.00
2019-01-11T20:23:02.172Z,2.00
2019-01-11T20:25:38.024Z,2.10
2019-01-11T20:28:18.636Z,2.10
2019-01-11T20:30:59.324Z,2.10
2019-01-11T20:33:39.888Z,2.20
2019-01-11T20:36:20.164Z,2.30
2019-01-11T20:39:00.596Z,2.20
2019-01-11T20:41:41.584Z,2.20
2019-01-11T20:44:22.267Z,2.30
2019-01-11T20:47:02.719Z,2.30
2019-01-11T20:49:43.144Z,2.30
2019-01-11T20:52:23.964Z,2.30
2019-01-11T20:55:04.396Z,2.30
2019-01-11T20:57:45.089Z,2.30
2019-01-11T21:00:25.967Z,2.30
2019-01-11T21:03:07.048Z,2.30
2019-01-11T21:05:47.300Z,2.30
2019-01-11T21:08:28.313Z,2.40
2019-01-11T21:11:09.052Z,2.40
2019-01-11T21:13:49.731Z,2.50
2019-01-11T21:16:30.150Z,2.50
2019-01-11T21:19:10.685Z,2.50
2019-01-11T21:21:51.776Z,2.50
2019-01-11T21:24:32.299Z,2.50
2019-01-11T21:27:12.622Z,2.50
2019-01-11T21:29:53.140Z,2.40
2019-01-11T21:32:33.564Z,2.40
2019-01-11T21:35:14.348Z,2.40
2019-01-11T21:37:55.169Z,2.40
2019-01-11T21:40:35.760Z,2.40
2019-01-11T21:43:16.740Z,2.30
2019-01-11T21:46:03.385Z,2.40
2019-01-11T21:48:39.775Z,2.50
2019-01-11T21:51:20.364Z,2.60
2019-01-11T21:54:01.280Z,2.60
2019-01-11T21:56:42.416Z,2.50
2019-01-11T21:59:22.931Z,2.60
2019-01-11T22:02:03.722Z,2.70
2019-01-11T22:04:44.216Z,2.70
2019-01-11T22:07:24.487Z,2.70
2019-01-11T22:10:04.989Z,2.70
2019-01-11T22:12:47.657Z,2.70
2019-01-11T22:15:28.487Z,2.70
2019-01-11T22:18:08.952Z,2.70
2019-01-11T22:20:49.856Z,2.60
2019-01-11T22:23:30.185Z,2.60
2019-01-11T22:26:10.356Z,2.70
2019-01-11T22:28:51.016Z,2.70
2019-01-11T22:31:31.228Z,2.80
2019-01-11T22:34:11.818Z,2.80
2019-01-11T22:36:52.484Z,2.80
2019-01-11T22:39:32.812Z,2.80
2019-01-11T22:42:13.736Z,2.80
2019-01-11T22:44:54.741Z,2.90
2019-01-11T22:47:35.892Z,2.90
2019-01-11T22:50:16.999Z,2.80
2019-01-11T22:52:57.385Z,2.80
2019-01-11T22:55:38.708Z,2.80
2019-01-11T22:58:19.289Z,2.80
2019-01-11T23:00:59.848Z,2.80
2019-01-11T23:03:40.291Z,2.80
2019-01-11T23:06:21.096Z,2.70
2019-01-11T23:09:01.872Z,2.80
2019-01-11T23:11:42.088Z,2.80
2019-01-11T23:14:22.452Z,2.80
2019-01-11T23:17:02.888Z,2.90
2019-01-11T23:19:43.523Z,2.90
2019-01-11T23:22:24.355Z,2.90
2019-01-11T23:25:05.065Z,3.00
2019-01-11T23:27:45.616Z,2.90
2019-01-11T23:30:26.403Z,3.00
2019-01-11T23:33:06.948Z,3.10
2019-01-11T23:35:47.520Z,3.10
2019-01-11T23:38:28.591Z,3.10
2019-01-11T23:41:09.632Z,3.10
2019-01-11T23:43:50.477Z,3.10
2019-01-11T23:46:31.644Z,3.10
2019-01-11T23:49:12.236Z,3.00
2019-01-11T23:51:53.324Z,3.00
2019-01-11T23:54:34.100Z,3.10
2019-01-11T23:57:15.008Z,3.00
2019-01-11T23:59:55.903Z,3.00
